sensor_id;sensor_type;location;lat;lon;timestamp;pressure;altitude;pressure_sealevel;temperature;humidity
79686;BME280;69153;47.918;11.428;2023-06-19T00:01:56;94879.94;;;20.96;44.85
79686;BME280;69153;47.918;11.428;2023-06-19T00:04:21;94883.56;;;21.04;44.31
79686;BME280;69153;47.918;11.428;2023-06-19T00:06:47;94884.56;;;21.12;44.56
79686;BME280;69153;47.918;11.428;2023-06-19T00:09:13;94886.28;;;21.15;44.60
79686;BME280;69153;47.918;11.428;2023-06-19T00:11:39;94885.03;;;21.16;44.31
79686;BME280;69153;47.918;11.428;2023-06-19T00:14:04;94878.19;;;21.21;44.43
79686;BME280;69153;47.918;11.428;2023-06-19T00:16:31;94876.25;;;21.21;44.21
79686;BME280;69153;47.918;11.428;2023-06-19T00:18:57;94884.06;;;21.19;44.09
79686;BME280;69153;47.918;11.428;2023-06-19T00:21:23;94886.53;;;21.23;44.10
79686;BME280;69153;47.918;11.428;2023-06-19T00:23:52;94887.50;;;21.25;44.12
79686;BME280;69153;47.918;11.428;2023-06-19T00:26:18;94891.19;;;21.28;44.31
79686;BME280;69153;47.918;11.428;2023-06-19T00:28:48;94880.13;;;21.31;44.15
79686;BME280;69153;47.918;11.428;2023-06-19T00:31:14;94879.19;;;21.29;44.46
79686;BME280;69153;47.918;11.428;2023-06-19T00:33:40;94879.88;;;21.29;44.80
79686;BME280;69153;47.918;11.428;2023-06-19T00:36:10;94877.19;;;21.29;44.78
79686;BME280;69153;47.918;11.428;2023-06-19T00:38:36;94877.47;;;21.26;44.63
79686;BME280;69153;47.918;11.428;2023-06-19T00:41:02;94876.72;;;21.25;44.52
79686;BME280;69153;47.918;11.428;2023-06-19T00:43:28;94879.41;;;21.20;44.74
79686;BME280;69153;47.918;11.428;2023-06-19T00:45:56;94882.56;;;21.18;44.78
79686;BME280;69153;47.918;11.428;2023-06-19T00:48:22;94879.41;;;21.20;44.72
79686;BME280;69153;47.918;11.428;2023-06-19T00:50:49;94888.25;;;21.15;44.45
79686;BME280;69153;47.918;11.428;2023-06-19T00:53:14;94876.22;;;21.16;45.01
79686;BME280;69153;47.918;11.428;2023-06-19T00:55:40;94887.50;;;21.14;44.81
79686;BME280;69153;47.918;11.428;2023-06-19T00:58:06;94886.28;;;21.15;44.59
79686;BME280;69153;47.918;11.428;2023-06-19T01:00:31;94893.84;;;21.17;44.38
79686;BME280;69153;47.918;11.428;2023-06-19T01:02:57;94889.47;;;21.14;44.81
79686;BME280;69153;47.918;11.428;2023-06-19T01:05:24;94888.25;;;21.15;44.73
79686;BME280;69153;47.918;11.428;2023-06-19T01:08:03;94884.31;;;21.16;44.87
79686;BME280;69153;47.918;11.428;2023-06-19T01:10:49;94886.78;;;21.14;45.05
79686;BME280;69153;47.918;11.428;2023-06-19T01:13:31;94889.47;;;21.14;45.12
79686;BME280;69153;47.918;11.428;2023-06-19T01:16:03;94885.28;;;21.18;45.07
79686;BME280;69153;47.918;11.428;2023-06-19T01:18:30;94884.81;;;21.20;44.97
79686;BME280;69153;47.918;11.428;2023-06-19T01:21:07;94886.78;;;21.19;45.22
79686;BME280;69153;47.918;11.428;2023-06-19T01:23:33;94888.25;;;21.20;45.15
79686;BME280;69153;47.918;11.428;2023-06-19T01:25:58;94893.13;;;21.22;45.45
79686;BME280;69153;47.918;11.428;2023-06-19T01:28:24;94885.78;;;21.22;45.41
79686;BME280;69153;47.918;11.428;2023-06-19T01:30:55;94880.88;;;21.21;45.46
79686;BME280;69153;47.918;11.428;2023-06-19T01:33:27;94875.75;;;21.23;45.85
79686;BME280;69153;47.918;11.428;2023-06-19T01:35:55;94879.88;;;21.29;45.29
79686;BME280;69153;47.918;11.428;2023-06-19T01:38:24;94885.06;;;21.27;45.11
79686;BME280;69153;47.918;11.428;2023-06-19T01:40:55;94883.09;;;21.28;45.31
79686;BME280;69153;47.918;11.428;2023-06-19T01:43:23;94881.34;;;21.30;45.11
79686;BME280;69153;47.918;11.428;2023-06-19T01:45:49;94879.88;;;21.29;45.31
79686;BME280;69153;47.918;11.428;2023-06-19T01:48:15;94881.13;;;21.28;45.13
79686;BME280;69153;47.918;11.428;2023-06-19T01:50:45;94881.63;;;21.27;45.40
79686;BME280;69153;47.918;11.428;2023-06-19T01:53:11;94887.75;;;21.22;45.34
79686;BME280;69153;47.918;11.428;2023-06-19T01:55:36;94889.72;;;21.21;45.43
79686;BME280;69153;47.918;11.428;2023-06-19T01:58:01;94891.66;;;21.21;45.59
79686;BME280;69153;47.918;11.428;2023-06-19T02:00:27;94893.88;;;21.22;45.58
79686;BME280;69153;47.918;11.428;2023-06-19T02:02:52;94891.41;;;21.19;45.83
79686;BME280;69153;47.918;11.428;2023-06-19T02:05:18;94896.06;;;21.18;46.02
79686;BME280;69153;47.918;11.428;2023-06-19T02:07:43;94895.09;;;21.16;45.89
79686;BME280;69153;47.918;11.428;2023-06-19T02:10:09;94889.19;;;21.17;45.98
79686;BME280;69153;47.918;11.428;2023-06-19T02:12:34;94889.47;;;21.14;45.84
79686;BME280;69153;47.918;11.428;2023-06-19T02:15:00;94886.53;;;21.12;45.92
79686;BME280;69153;47.918;11.428;2023-06-19T02:17:25;94893.63;;;21.09;46.13
79686;BME280;69153;47.918;11.428;2023-06-19T02:19:51;94896.81;;;21.08;46.01
79686;BME280;69153;47.918;11.428;2023-06-19T02:22:17;94889.69;;;21.04;45.83
79686;BME280;69153;47.918;11.428;2023-06-19T02:24:43;94895.84;;;20.99;46.17
79686;BME280;69153;47.918;11.428;2023-06-19T02:27:10;94896.59;;;20.89;46.45
79686;BME280;69153;47.918;11.428;2023-06-19T02:29:35;94892.16;;;20.91;46.35
79686;BME280;69153;47.918;11.428;2023-06-19T02:32:03;94909.31;;;20.88;46.09
79686;BME280;69153;47.918;11.428;2023-06-19T02:34:28;94909.81;;;20.87;46.18
79686;BME280;69153;47.918;11.428;2023-06-19T02:36:54;94905.63;;;20.80;46.30
79686;BME280;69153;47.918;11.428;2023-06-19T02:39:20;94904.41;;;20.81;46.59
79686;BME280;69153;47.918;11.428;2023-06-19T02:41:46;94901.97;;;20.83;46.13
79686;BME280;69153;47.918;11.428;2023-06-19T02:44:12;94905.91;;;20.88;46.50
79686;BME280;69153;47.918;11.428;2023-06-19T02:46:38;94910.78;;;20.89;46.45
79686;BME280;69153;47.918;11.428;2023-06-19T02:49:03;94911.75;;;20.92;46.00
79686;BME280;69153;47.918;11.428;2023-06-19T02:51:29;94919.09;;;20.91;46.33
79686;BME280;69153;47.918;11.428;2023-06-19T02:53:54;94914.94;;;20.90;46.46
79686;BME280;69153;47.918;11.428;2023-06-19T02:56:20;94911.03;;;20.86;46.53
79686;BME280;69153;47.918;11.428;2023-06-19T02:58:45;94917.88;;;20.87;46.67
79686;BME280;69153;47.918;11.428;2023-06-19T03:01:11;94911.53;;;20.84;46.74
79686;BME280;69153;47.918;11.428;2023-06-19T03:03:36;94910.06;;;20.89;46.31
79686;BME280;69153;47.918;11.428;2023-06-19T03:06:07;94911.53;;;20.90;46.22
79686;BME280;69153;47.918;11.428;2023-06-19T03:08:34;94913.50;;;20.89;46.41
79686;BME280;69153;47.918;11.428;2023-06-19T03:10:59;94919.38;;;20.88;46.55
79686;BME280;69153;47.918;11.428;2023-06-19T03:13:25;94920.31;;;20.90;46.74
79686;BME280;69153;47.918;11.428;2023-06-19T03:15:50;94926.69;;;20.93;46.79
79686;BME280;69153;47.918;11.428;2023-06-19T03:18:16;94925.22;;;20.92;47.07
79686;BME280;69153;47.918;11.428;2023-06-19T03:20:41;94934.78;;;20.93;47.01
79686;BME280;69153;47.918;11.428;2023-06-19T03:23:07;94930.84;;;20.94;47.22
79686;BME280;69153;47.918;11.428;2023-06-19T03:25:32;94933.06;;;20.95;47.15
79686;BME280;69153;47.918;11.428;2023-06-19T03:28:03;94931.59;;;20.94;47.25
79686;BME280;69153;47.918;11.428;2023-06-19T03:30:29;94934.28;;;20.94;46.94
79686;BME280;69153;47.918;11.428;2023-06-19T03:32:55;94941.38;;;20.97;47.01
79686;BME280;69153;47.918;11.428;2023-06-19T03:35:20;94940.16;;;20.98;47.34
79686;BME280;69153;47.918;11.428;2023-06-19T03:37:46;94943.84;;;20.95;47.72
79686;BME280;69153;47.918;11.428;2023-06-19T03:40:11;94946.78;;;20.97;47.26
79686;BME280;69153;47.918;11.428;2023-06-19T03:42:39;94955.34;;;21.01;46.86
79686;BME280;69153;47.918;11.428;2023-06-19T03:45:05;94953.13;;;21.05;47.51
79686;BME280;69153;47.918;11.428;2023-06-19T03:47:31;94953.88;;;21.06;47.19
79686;BME280;69153;47.918;11.428;2023-06-19T03:49:57;94955.34;;;21.07;47.35
79686;BME280;69153;47.918;11.428;2023-06-19T03:52:22;94953.13;;;21.05;47.34
79686;BME280;69153;47.918;11.428;2023-06-19T03:54:48;94956.56;;;21.06;47.63
79686;BME280;69153;47.918;11.428;2023-06-19T03:57:13;94969.53;;;21.08;48.03
79686;BME280;69153;47.918;11.428;2023-06-19T03:59:39;94962.69;;;21.07;48.08
79686;BME280;69153;47.918;11.428;2023-06-19T04:02:04;94971.25;;;21.05;47.00
79686;BME280;69153;47.918;11.428;2023-06-19T04:04:30;94972.72;;;21.06;46.50
79686;BME280;69153;47.918;11.428;2023-06-19T04:06:55;94972.00;;;21.11;45.72
79686;BME280;69153;47.918;11.428;2023-06-19T04:09:21;94967.34;;;21.12;45.67
79686;BME280;69153;47.918;11.428;2023-06-19T04:11:46;94965.63;;;21.14;45.77
79686;BME280;69153;47.918;11.428;2023-06-19T04:14:12;94979.56;;;21.18;45.33
79686;BME280;69153;47.918;11.428;2023-06-19T04:16:37;94982.81;;;21.22;45.12
79686;BME280;69153;47.918;11.428;2023-06-19T04:19:03;94981.34;;;21.27;45.28
79686;BME280;69153;47.918;11.428;2023-06-19T04:21:28;94981.59;;;21.29;44.89
79686;BME280;69153;47.918;11.428;2023-06-19T04:23:53;94984.50;;;21.31;45.44
79686;BME280;69153;47.918;11.428;2023-06-19T04:26:19;94989.66;;;21.34;45.62
79686;BME280;69153;47.918;11.428;2023-06-19T04:28:46;94988.19;;;21.33;46.15
79686;BME280;69153;47.918;11.428;2023-06-19T04:31:12;94991.13;;;21.30;46.47
79686;BME280;69153;47.918;11.428;2023-06-19T04:33:37;94992.59;;;21.31;46.67
79686;BME280;69153;47.918;11.428;2023-06-19T04:36:05;94994.31;;;21.34;46.57
79686;BME280;69153;47.918;11.428;2023-06-19T04:38:30;94994.78;;;21.32;46.68
79686;BME280;69153;47.918;11.428;2023-06-19T04:40:56;94992.59;;;21.31;45.45
79686;BME280;69153;47.918;11.428;2023-06-19T04:43:22;95001.66;;;21.33;45.88
79686;BME280;69153;47.918;11.428;2023-06-19T04:45:49;95003.16;;;21.29;45.86
79686;BME280;69153;47.918;11.428;2023-06-19T04:48:15;95006.56;;;21.24;46.44
79686;BME280;69153;47.918;11.428;2023-06-19T04:50:40;95009.75;;;21.28;46.28
79686;BME280;69153;47.918;11.428;2023-06-19T04:53:06;95013.16;;;21.34;46.23
79686;BME280;69153;47.918;11.428;2023-06-19T04:55:31;95022.00;;;21.34;45.91
79686;BME280;69153;47.918;11.428;2023-06-19T04:57:57;95024.94;;;21.36;46.41
79686;BME280;69153;47.918;11.428;2023-06-19T05:00:22;95025.44;;;21.41;46.26
79686;BME280;69153;47.918;11.428;2023-06-19T05:02:49;95039.16;;;21.37;46.18
79686;BME280;69153;47.918;11.428;2023-06-19T05:05:16;95042.34;;;21.35;46.37
79686;BME280;69153;47.918;11.428;2023-06-19T05:07:42;95037.94;;;21.38;46.20
79686;BME280;69153;47.918;11.428;2023-06-19T05:10:07;95043.56;;;21.40;46.05
79686;BME280;69153;47.918;11.428;2023-06-19T05:12:35;95050.44;;;21.41;46.01
79686;BME280;69153;47.918;11.428;2023-06-19T05:15:01;95048.94;;;21.46;46.13
79686;BME280;69153;47.918;11.428;2023-06-19T05:17:27;95049.94;;;21.48;45.85
79686;BME280;69153;47.918;11.428;2023-06-19T05:19:52;95052.63;;;21.54;45.83
79686;BME280;69153;47.918;11.428;2023-06-19T05:22:17;95048.69;;;21.60;45.81
79686;BME280;69153;47.918;11.428;2023-06-19T05:24:47;95051.91;;;21.53;45.60
79686;BME280;69153;47.918;11.428;2023-06-19T05:27:13;95049.91;;;21.59;46.06
79686;BME280;69153;47.918;11.428;2023-06-19T05:29:38;95061.41;;;21.71;45.97
79686;BME280;69153;47.918;11.428;2023-06-19T05:32:04;95059.47;;;21.66;45.70
79686;BME280;69153;47.918;11.428;2023-06-19T05:34:30;95073.19;;;21.79;46.05
79686;BME280;69153;47.918;11.428;2023-06-19T05:36:55;95071.22;;;21.68;45.48
79686;BME280;69153;47.918;11.428;2023-06-19T05:39:20;95065.34;;;21.59;45.96
79686;BME280;69153;47.918;11.428;2023-06-19T05:41:46;95075.16;;;21.56;46.18
79686;BME280;69153;47.918;11.428;2023-06-19T05:44:12;95076.63;;;21.80;45.96
79686;BME280;69153;47.918;11.428;2023-06-19T05:46:42;95079.34;;;21.80;45.44
79686;BME280;69153;47.918;11.428;2023-06-19T05:49:08;95080.56;;;21.73;45.71
79686;BME280;69153;47.918;11.428;2023-06-19T05:51:33;95076.13;;;21.75;45.82
79686;BME280;69153;47.918;11.428;2023-06-19T05:53:59;95082.75;;;21.86;45.75
79686;BME280;69153;47.918;11.428;2023-06-19T05:56:29;95083.47;;;22.03;45.57
79686;BME280;69153;47.918;11.428;2023-06-19T05:58:55;95083.47;;;22.08;44.85
79686;BME280;69153;47.918;11.428;2023-06-19T06:01:20;95088.09;;;22.25;44.89
79686;BME280;69153;47.918;11.428;2023-06-19T06:04:11;95087.56;;;22.43;44.92
79686;BME280;69153;47.918;11.428;2023-06-19T06:06:36;95090.94;;;22.55;44.69
79686;BME280;69153;47.918;11.428;2023-06-19T06:09:02;95094.81;;;22.65;44.91
79686;BME280;69153;47.918;11.428;2023-06-19T06:11:27;95098.22;;;22.76;45.10
79686;BME280;69153;47.918;11.428;2023-06-19T06:13:53;95097.72;;;22.78;44.92
79686;BME280;69153;47.918;11.428;2023-06-19T06:16:18;95102.13;;;22.75;45.10
79686;BME280;69153;47.918;11.428;2023-06-19T06:18:45;95104.41;;;22.66;45.26
79686;BME280;69153;47.918;11.428;2023-06-19T06:21:11;95109.75;;;22.83;44.86
79686;BME280;69153;47.918;11.428;2023-06-19T06:23:40;95108.97;;;22.93;44.01
79686;BME280;69153;47.918;11.428;2023-06-19T06:26:06;95104.78;;;22.92;43.87
79686;BME280;69153;47.918;11.428;2023-06-19T06:28:31;95114.72;;;23.14;43.65
79686;BME280;69153;47.918;11.428;2023-06-19T06:30:56;95113.97;;;23.19;43.29
79686;BME280;69153;47.918;11.428;2023-06-19T06:33:23;95125.44;;;23.36;42.47
79686;BME280;69153;47.918;11.428;2023-06-19T06:35:48;95118.72;;;23.43;43.47
79686;BME280;69153;47.918;11.428;2023-06-19T06:38:14;95120.94;;;23.44;42.86
79686;BME280;69153;47.918;11.428;2023-06-19T06:40:39;95125.38;;;23.42;42.20
79686;BME280;69153;47.918;11.428;2023-06-19T06:43:06;95131.97;;;23.52;42.66
79686;BME280;69153;47.918;11.428;2023-06-19T06:45:32;95136.94;;;23.42;42.88
79686;BME280;69153;47.918;11.428;2023-06-19T06:47:57;95133.94;;;23.51;42.90
79686;BME280;69153;47.918;11.428;2023-06-19T06:50:23;95136.13;;;23.59;42.33
79686;BME280;69153;47.918;11.428;2023-06-19T06:52:48;95129.75;;;23.50;42.77
79686;BME280;69153;47.918;11.428;2023-06-19T06:55:13;95142.19;;;23.29;42.90
79686;BME280;69153;47.918;11.428;2023-06-19T06:57:39;95142.00;;;23.16;43.55
79686;BME280;69153;47.918;11.428;2023-06-19T07:00:05;95144.50;;;23.08;43.24
79686;BME280;69153;47.918;11.428;2023-06-19T07:02:30;95146.75;;;23.45;42.87
79686;BME280;69153;47.918;11.428;2023-06-19T07:04:56;95150.09;;;23.63;42.34
79686;BME280;69153;47.918;11.428;2023-06-19T07:07:21;95142.91;;;23.71;42.41
79686;BME280;69153;47.918;11.428;2023-06-19T07:09:47;95142.63;;;23.74;42.72
79686;BME280;69153;47.918;11.428;2023-06-19T07:12:12;95150.81;;;23.99;42.76
79686;BME280;69153;47.918;11.428;2023-06-19T07:14:38;95145.78;;;24.08;42.03
79686;BME280;69153;47.918;11.428;2023-06-19T07:17:03;95151.16;;;23.84;42.66
79686;BME280;69153;47.918;11.428;2023-06-19T07:19:32;95146.53;;;24.09;42.52
79686;BME280;69153;47.918;11.428;2023-06-19T07:21:58;95139.88;;;24.10;42.60
79686;BME280;69153;47.918;11.428;2023-06-19T07:24:24;95148.88;;;24.18;42.22
79686;BME280;69153;47.918;11.428;2023-06-19T07:26:49;95151.44;;;24.10;42.19
79686;BME280;69153;47.918;11.428;2023-06-19T07:29:15;95148.00;;;24.10;41.79
79686;BME280;69153;47.918;11.428;2023-06-19T07:31:40;95154.03;;;24.27;41.38
79686;BME280;69153;47.918;11.428;2023-06-19T07:34:08;95147.53;;;24.36;41.35
79686;BME280;69153;47.918;11.428;2023-06-19T07:36:34;95152.53;;;24.50;40.92
79686;BME280;69153;47.918;11.428;2023-06-19T07:38:59;95145.19;;;24.70;40.74
79686;BME280;69153;47.918;11.428;2023-06-19T07:41:24;95146.94;;;24.67;40.74
79686;BME280;69153;47.918;11.428;2023-06-19T07:43:50;95146.41;;;24.69;40.39
79686;BME280;69153;47.918;11.428;2023-06-19T07:46:15;95147.03;;;24.80;40.21
79686;BME280;69153;47.918;11.428;2023-06-19T07:48:42;95146.94;;;24.67;40.61
79686;BME280;69153;47.918;11.428;2023-06-19T07:51:07;95144.03;;;24.84;39.86
79686;BME280;69153;47.918;11.428;2023-06-19T07:53:33;95147.88;;;24.94;40.29
79686;BME280;69153;47.918;11.428;2023-06-19T07:55:58;95153.78;;;24.92;40.65
79686;BME280;69153;47.918;11.428;2023-06-19T07:58:24;95146.94;;;25.10;39.87
79686;BME280;69153;47.918;11.428;2023-06-19T08:00:49;95152.06;;;25.14;39.77
79686;BME280;69153;47.918;11.428;2023-06-19T08:03:15;95140.56;;;25.26;39.44
79686;BME280;69153;47.918;11.428;2023-06-19T08:05:40;95141.47;;;25.48;38.81
79686;BME280;69153;47.918;11.428;2023-06-19T08:08:06;95137.16;;;25.39;38.86
79686;BME280;69153;47.918;11.428;2023-06-19T08:10:31;95148.91;;;25.10;39.45
79686;BME280;69153;47.918;11.428;2023-06-19T08:12:56;95149.72;;;25.23;39.23
79686;BME280;69153;47.918;11.428;2023-06-19T08:15:22;95149.09;;;25.49;38.91
79686;BME280;69153;47.918;11.428;2023-06-19T08:17:47;95149.75;;;25.55;39.54
79686;BME280;69153;47.918;11.428;2023-06-19T08:20:13;95147.22;;;25.44;39.56
79686;BME280;69153;47.918;11.428;2023-06-19T08:22:38;95147.72;;;25.24;40.14
79686;BME280;69153;47.918;11.428;2023-06-19T08:25:04;95146.03;;;25.40;39.89
79686;BME280;69153;47.918;11.428;2023-06-19T08:27:30;95146.03;;;25.40;40.17
79686;BME280;69153;47.918;11.428;2023-06-19T08:29:55;95144.00;;;25.59;39.63
79686;BME280;69153;47.918;11.428;2023-06-19T08:32:21;95138.59;;;25.78;39.81
79686;BME280;69153;47.918;11.428;2023-06-19T08:34:46;95142.19;;;25.99;39.40
79686;BME280;69153;47.918;11.428;2023-06-19T08:37:11;95129.34;;;25.99;39.58
79686;BME280;69153;47.918;11.428;2023-06-19T08:39:37;95141.56;;;25.93;39.38
79686;BME280;69153;47.918;11.428;2023-06-19T08:42:08;95130.72;;;26.06;39.93
79686;BME280;69153;47.918;11.428;2023-06-19T08:44:34;95144.69;;;25.97;39.51
79686;BME280;69153;47.918;11.428;2023-06-19T08:47:01;95143.06;;;26.07;38.75
79686;BME280;69153;47.918;11.428;2023-06-19T08:49:29;95131.03;;;26.16;38.90
79686;BME280;69153;47.918;11.428;2023-06-19T08:51:55;95138.31;;;25.94;38.94
79686;BME280;69153;47.918;11.428;2023-06-19T08:54:22;95129.28;;;25.73;39.34
79686;BME280;69153;47.918;11.428;2023-06-19T08:56:48;95126.88;;;25.70;39.64
79686;BME280;69153;47.918;11.428;2023-06-19T08:59:15;95127.31;;;25.55;40.55
79686;BME280;69153;47.918;11.428;2023-06-19T09:01:48;95123.63;;;25.71;39.74
79686;BME280;69153;47.918;11.428;2023-06-19T09:04:25;95115.97;;;26.02;39.57
79686;BME280;69153;47.918;11.428;2023-06-19T09:06:58;95110.13;;;26.11;39.94
79686;BME280;69153;47.918;11.428;2023-06-19T09:09:25;95114.78;;;26.29;39.32
79686;BME280;69153;47.918;11.428;2023-06-19T09:12:06;95110.50;;;26.47;38.21
79686;BME280;69153;47.918;11.428;2023-06-19T09:14:35;95104.13;;;26.44;38.38
79686;BME280;69153;47.918;11.428;2023-06-19T09:17:10;95105.59;;;26.32;38.52
79686;BME280;69153;47.918;11.428;2023-06-19T09:19:36;95103.66;;;26.27;38.74
79686;BME280;69153;47.918;11.428;2023-06-19T09:22:06;95105.66;;;26.26;38.43
79686;BME280;69153;47.918;11.428;2023-06-19T09:24:37;95098.78;;;26.39;38.53
79686;BME280;69153;47.918;11.428;2023-06-19T09:27:16;95095.75;;;26.42;38.80
79686;BME280;69153;47.918;11.428;2023-06-19T09:29:49;95096.06;;;26.65;38.03
79686;BME280;69153;47.918;11.428;2023-06-19T09:34:43;95087.94;;;27.12;37.47
79686;BME280;69153;47.918;11.428;2023-06-19T09:37:09;95094.72;;;27.19;37.57
79686;BME280;69153;47.918;11.428;2023-06-19T09:39:37;95094.00;;;27.39;36.74
79686;BME280;69153;47.918;11.428;2023-06-19T09:42:06;95098.31;;;27.34;35.80
79686;BME280;69153;47.918;11.428;2023-06-19T09:44:40;95088.06;;;27.27;35.63
79686;BME280;69153;47.918;11.428;2023-06-19T09:47:14;95089.53;;;27.28;35.68
79686;BME280;69153;47.918;11.428;2023-06-19T09:49:48;95084.84;;;27.50;35.22
79686;BME280;69153;47.918;11.428;2023-06-19T09:52:15;95092.97;;;27.63;34.45
79686;BME280;69153;47.918;11.428;2023-06-19T09:54:41;95089.66;;;27.78;34.54
79686;BME280;69153;47.918;11.428;2023-06-19T09:57:10;95086.25;;;27.85;34.30
79686;BME280;69153;47.918;11.428;2023-06-19T09:59:37;95092.84;;;27.68;34.69
79686;BME280;69153;47.918;11.428;2023-06-19T10:02:04;95086.94;;;27.78;34.83
79686;BME280;69153;47.918;11.428;2023-06-19T10:04:42;95081.59;;;27.93;33.59
79686;BME280;69153;47.918;11.428;2023-06-19T10:07:18;95091.50;;;28.03;32.52
79686;BME280;69153;47.918;11.428;2023-06-19T10:10:11;95070.88;;;27.95;33.27
79686;BME280;69153;47.918;11.428;2023-06-19T10:12:45;95070.97;;;27.82;33.33
79686;BME280;69153;47.918;11.428;2023-06-19T10:15:25;95075.41;;;27.92;33.13
79686;BME280;69153;47.918;11.428;2023-06-19T10:18:03;95071.63;;;27.95;33.02
79686;BME280;69153;47.918;11.428;2023-06-19T10:20:31;95070.06;;;28.07;34.43
79686;BME280;69153;47.918;11.428;2023-06-19T10:25:31;95080.16;;;28.49;33.83
79686;BME280;69153;47.918;11.428;2023-06-19T10:27:58;95070.81;;;28.72;32.81
79686;BME280;69153;47.918;11.428;2023-06-19T10:30:24;95067.03;;;28.83;32.71
79686;BME280;69153;47.918;11.428;2023-06-19T10:32:50;95062.56;;;28.93;32.73
79686;BME280;69153;47.918;11.428;2023-06-19T10:35:17;95061.25;;;28.87;31.74
79686;BME280;69153;47.918;11.428;2023-06-19T10:37:43;95060.81;;;28.75;31.86
79686;BME280;69153;47.918;11.428;2023-06-19T10:40:10;95061.69;;;28.70;32.44
79686;BME280;69153;47.918;11.428;2023-06-19T10:42:38;95056.63;;;28.74;32.11
79686;BME280;69153;47.918;11.428;2023-06-19T10:45:05;95056.19;;;28.91;31.78
79686;BME280;69153;47.918;11.428;2023-06-19T10:47:35;95052.56;;;29.03;31.59
79686;BME280;69153;47.918;11.428;2023-06-19T10:50:01;95040.41;;;29.12;31.18
79686;BME280;69153;47.918;11.428;2023-06-19T10:52:30;95046.19;;;29.08;31.09
79686;BME280;69153;47.918;11.428;2023-06-19T10:54:56;95046.00;;;28.91;31.28
79686;BME280;69153;47.918;11.428;2023-06-19T10:57:32;95045.81;;;28.89;32.18
79686;BME280;69153;47.918;11.428;2023-06-19T10:59:58;95046.78;;;29.14;31.65
79686;BME280;69153;47.918;11.428;2023-06-19T11:02:25;95043.00;;;29.48;30.70
79686;BME280;69153;47.918;11.428;2023-06-19T11:04:54;95032.66;;;29.54;31.11
79686;BME280;69153;47.918;11.428;2023-06-19T11:07:22;95027.72;;;29.68;30.64
79686;BME280;69153;47.918;11.428;2023-06-19T11:09:48;95026.09;;;29.72;30.41
79686;BME280;69153;47.918;11.428;2023-06-19T11:12:21;95024.63;;;29.79;29.81
79686;BME280;69153;47.918;11.428;2023-06-19T11:14:48;95034.09;;;29.85;29.86
79686;BME280;69153;47.918;11.428;2023-06-19T11:17:14;95024.25;;;29.75;29.83
79686;BME280;69153;47.918;11.428;2023-06-19T11:19:39;95015.31;;;29.90;29.45
79686;BME280;69153;47.918;11.428;2023-06-19T11:22:07;95021.38;;;29.73;29.23
79686;BME280;69153;47.918;11.428;2023-06-19T11:24:33;95014.44;;;29.57;29.73
79686;BME280;69153;47.918;11.428;2023-06-19T11:26:58;95010.41;;;29.27;29.38
79686;BME280;69153;47.918;11.428;2023-06-19T11:29:26;95003.09;;;29.14;30.15
79686;BME280;69153;47.918;11.428;2023-06-19T11:32:07;95007.28;;;29.15;30.22
79686;BME280;69153;47.918;11.428;2023-06-19T11:34:35;95022.56;;;29.11;30.24
79686;BME280;69153;47.918;11.428;2023-06-19T11:37:18;95011.47;;;29.24;29.82
79686;BME280;69153;47.918;11.428;2023-06-19T11:39:48;95012.94;;;29.25;30.41
79686;BME280;69153;47.918;11.428;2023-06-19T11:42:14;95009.66;;;29.11;30.78
79686;BME280;69153;47.918;11.428;2023-06-19T11:47:20;94999.47;;;29.04;31.21
79686;BME280;69153;47.918;11.428;2023-06-19T11:49:49;95002.19;;;29.04;30.97
79686;BME280;69153;47.918;11.428;2023-06-19T11:52:15;95002.53;;;29.08;30.53
79686;BME280;69153;47.918;11.428;2023-06-19T11:54:40;95012.91;;;29.10;30.70
79686;BME280;69153;47.918;11.428;2023-06-19T11:57:06;95015.28;;;29.13;30.87
79686;BME280;69153;47.918;11.428;2023-06-19T11:59:31;95010.06;;;29.38;30.99
79686;BME280;69153;47.918;11.428;2023-06-19T12:01:57;95003.34;;;29.47;30.94
79686;BME280;69153;47.918;11.428;2023-06-19T12:04:24;95008.97;;;29.41;31.38
79686;BME280;69153;47.918;11.428;2023-06-19T12:06:52;94999.53;;;29.42;31.01
79686;BME280;69153;47.918;11.428;2023-06-19T12:09:18;94996.75;;;29.35;30.80
79686;BME280;69153;47.918;11.428;2023-06-19T12:11:43;94998.25;;;29.43;31.16
79686;BME280;69153;47.918;11.428;2023-06-19T12:14:08;94996.06;;;29.42;31.40
79686;BME280;69153;47.918;11.428;2023-06-19T12:16:34;94988.22;;;29.38;31.17
79686;BME280;69153;47.918;11.428;2023-06-19T12:18:59;94997.47;;;29.35;30.84
79686;BME280;69153;47.918;11.428;2023-06-19T12:21:25;94990.34;;;29.02;31.93
79686;BME280;69153;47.918;11.428;2023-06-19T12:23:50;94977.44;;;29.10;31.71
79686;BME280;69153;47.918;11.428;2023-06-19T12:26:16;94980.06;;;29.46;31.46
79686;BME280;69153;47.918;11.428;2023-06-19T12:28:41;94981.28;;;29.60;31.23
79686;BME280;69153;47.918;11.428;2023-06-19T12:31:07;94977.81;;;29.75;31.49
79686;BME280;69153;47.918;11.428;2023-06-19T12:33:32;94978.56;;;29.83;30.61
79686;BME280;69153;47.918;11.428;2023-06-19T12:35:58;94982.19;;;29.85;30.55
79686;BME280;69153;47.918;11.428;2023-06-19T12:38:24;94975.97;;;30.08;30.27
79686;BME280;69153;47.918;11.428;2023-06-19T12:40:49;94976.66;;;30.24;29.87
79686;BME280;69153;47.918;11.428;2023-06-19T12:43:15;94972.47;;;30.15;29.51
79686;BME280;69153;47.918;11.428;2023-06-19T12:45:40;94977.78;;;30.05;30.51
79686;BME280;69153;47.918;11.428;2023-06-19T12:48:07;94979.22;;;30.14;30.37
79686;BME280;69153;47.918;11.428;2023-06-19T12:50:32;94975.06;;;30.05;30.28
79686;BME280;69153;47.918;11.428;2023-06-19T12:52:58;94974.97;;;30.28;29.95
79686;BME280;69153;47.918;11.428;2023-06-19T12:55:23;94975.56;;;30.19;29.53
79686;BME280;69153;47.918;11.428;2023-06-19T12:57:49;94965.22;;;29.95;29.52